createdAt,value
2023-05-05T00:00:56.990Z,14.19
2023-05-05T00:01:56.917Z,14.18
2023-05-05T00:02:56.904Z,14.19
2023-05-05T00:03:57.021Z,14.22
2023-05-05T00:04:56.807Z,14.24
2023-05-05T00:05:56.849Z,14.23
2023-05-05T00:06:56.815Z,14.21
2023-05-05T00:07:56.780Z,14.19
2023-05-05T00:08:56.847Z,14.18
2023-05-05T00:09:56.765Z,14.17
2023-05-05T00:10:56.788Z,14.18
2023-05-05T00:11:56.782Z,14.16
2023-05-05T00:12:56.866Z,14.13
2023-05-05T00:13:56.745Z,14.10
2023-05-05T00:14:56.748Z,14.06
2023-05-05T00:15:56.721Z,14.05
2023-05-05T00:16:56.754Z,14.04
2023-05-05T00:17:56.767Z,14.02
2023-05-05T00:18:56.716Z,13.99
2023-05-05T00:19:56.653Z,13.97
2023-05-05T00:20:56.709Z,13.96
2023-05-05T00:21:56.636Z,13.95
2023-05-05T00:22:56.636Z,13.92
2023-05-05T00:23:56.687Z,13.88
2023-05-05T00:24:56.625Z,13.85
2023-05-05T00:25:56.596Z,13.83
2023-05-05T00:26:56.612Z,13.83
2023-05-05T00:27:56.625Z,13.84
2023-05-05T00:28:56.576Z,13.83
2023-05-05T00:29:56.550Z,13.81
2023-05-05T00:30:56.589Z,13.79
2023-05-05T00:31:56.547Z,13.76
2023-05-05T00:32:56.606Z,13.74
2023-05-05T00:33:56.503Z,13.74
2023-05-05T00:34:56.515Z,13.72
2023-05-05T00:35:56.489Z,13.73
2023-05-05T00:36:56.497Z,13.75
2023-05-05T00:37:56.487Z,13.76
2023-05-05T00:38:56.465Z,13.77
2023-05-05T00:39:56.500Z,13.78
2023-05-05T00:40:56.492Z,13.79
2023-05-05T00:41:56.454Z,13.81
2023-05-05T00:42:56.412Z,13.83
2023-05-05T00:43:56.414Z,13.83
2023-05-05T00:44:56.479Z,13.81
2023-05-05T00:45:56.417Z,13.77
2023-05-05T00:46:56.417Z,13.75
2023-05-05T00:47:56.458Z,13.76
2023-05-05T00:48:56.435Z,13.76
2023-05-05T00:49:56.399Z,13.76
2023-05-05T00:50:56.414Z,13.74
2023-05-05T00:51:56.319Z,13.72
2023-05-05T00:52:56.412Z,13.73
2023-05-05T00:53:56.326Z,13.75
2023-05-05T00:54:56.348Z,13.78
2023-05-05T00:55:56.361Z,13.80
2023-05-05T00:56:56.288Z,13.79
2023-05-05T00:57:56.315Z,13.75
2023-05-05T00:58:56.362Z,13.69
2023-05-05T00:59:56.309Z,13.65
2023-05-05T01:00:56.259Z,13.63
2023-05-05T01:01:56.229Z,13.62
2023-05-05T01:02:56.355Z,13.60
2023-05-05T01:03:56.263Z,13.58
2023-05-05T01:04:56.217Z,13.55
2023-05-05T01:05:56.199Z,13.55
2023-05-05T01:06:56.219Z,13.55
2023-05-05T01:07:56.176Z,13.56
2023-05-05T01:08:56.178Z,13.55
2023-05-05T01:10:18.304Z,13.52
2023-05-05T01:10:56.188Z,13.47
2023-05-05T01:11:56.213Z,13.43
2023-05-05T01:12:56.182Z,13.40
2023-05-05T01:13:56.141Z,13.37
2023-05-05T01:14:56.108Z,13.36
2023-05-05T01:15:56.390Z,13.36
2023-05-05T01:16:56.089Z,13.36
2023-05-05T01:17:56.119Z,13.36
2023-05-05T01:18:56.046Z,13.36
2023-05-05T01:19:56.062Z,13.37
2023-05-05T01:20:56.014Z,13.40
2023-05-05T01:21:56.034Z,13.41
2023-05-05T01:22:56.051Z,13.40
2023-05-05T01:23:56.073Z,13.38
2023-05-05T01:24:56.060Z,13.36
2023-05-05T01:25:56.020Z,13.35
2023-05-05T01:26:55.960Z,13.34
2023-05-05T01:27:56.068Z,13.33
2023-05-05T01:28:55.957Z,13.29
2023-05-05T01:29:55.952Z,13.26
2023-05-05T01:30:55.955Z,13.27
2023-05-05T01:31:56.039Z,13.30
2023-05-05T01:32:55.944Z,13.32
2023-05-05T01:33:55.960Z,13.29
2023-05-05T01:34:55.954Z,13.27
2023-05-05T01:35:55.876Z,13.24
2023-05-05T01:36:55.864Z,13.22
2023-05-05T01:37:55.860Z,13.22
2023-05-05T01:38:55.884Z,13.23
2023-05-05T01:39:55.856Z,13.22
2023-05-05T01:40:55.805Z,13.20
2023-05-05T01:41:55.809Z,13.18
2023-05-05T01:42:55.840Z,13.16
2023-05-05T01:43:55.857Z,13.15
2023-05-05T01:44:55.801Z,13.14
2023-05-05T01:45:55.810Z,13.16
2023-05-05T01:46:55.822Z,13.19
2023-05-05T01:47:55.780Z,13.20
2023-05-05T01:48:55.730Z,13.18
2023-05-05T01:49:55.735Z,13.14
2023-05-05T01:50:55.721Z,13.12
2023-05-05T01:51:55.721Z,13.13
2023-05-05T01:52:55.684Z,13.14
2023-05-05T01:53:55.677Z,13.17
2023-05-05T01:54:55.675Z,13.17
2023-05-05T01:55:55.653Z,13.16
2023-05-05T01:56:55.656Z,13.14
2023-05-05T01:57:55.649Z,13.15
2023-05-05T01:58:55.630Z,13.17
2023-05-05T01:59:55.622Z,13.18
2023-05-05T02:00:55.630Z,13.21
2023-05-05T02:01:55.590Z,13.23
2023-05-05T02:02:55.635Z,13.21
2023-05-05T02:03:55.588Z,13.20
2023-05-05T02:04:55.565Z,13.22
2023-05-05T02:05:55.549Z,13.23
2023-05-05T02:06:55.540Z,13.24
2023-05-05T02:07:55.550Z,13.25
2023-05-05T02:08:55.525Z,13.27
2023-05-05T02:09:55.500Z,13.26
2023-05-05T02:10:55.560Z,13.25
2023-05-05T02:11:55.503Z,13.24
2023-05-05T02:12:55.521Z,13.22
2023-05-05T02:13:55.513Z,13.19
2023-05-05T02:14:55.464Z,13.17
2023-05-05T02:15:55.463Z,13.16
2023-05-05T02:16:55.449Z,13.15
2023-05-05T02:17:55.475Z,13.16
2023-05-05T02:18:55.411Z,13.17
2023-05-05T02:19:55.465Z,13.14
2023-05-05T02:20:55.394Z,13.10
2023-05-05T02:21:55.390Z,13.08
2023-05-05T02:22:55.393Z,13.07
2023-05-05T02:23:55.372Z,13.07
2023-05-05T02:24:55.401Z,13.07
2023-05-05T02:25:55.350Z,13.07
2023-05-05T02:26:55.338Z,13.07
2023-05-05T02:27:55.332Z,13.05
2023-05-05T02:28:55.329Z,13.03
2023-05-05T02:29:55.310Z,12.98
2023-05-05T02:30:55.319Z,12.93
2023-05-05T02:31:55.283Z,12.89
2023-05-05T02:32:55.357Z,12.87
2023-05-05T02:33:55.263Z,12.86
2023-05-05T02:34:55.283Z,12.84
2023-05-05T02:35:55.273Z,12.80
2023-05-05T02:36:55.286Z,12.78
2023-05-05T02:37:55.289Z,12.77
2023-05-05T02:38:55.236Z,12.77
2023-05-05T02:39:55.202Z,12.77
2023-05-05T02:40:55.248Z,12.77
2023-05-05T02:41:55.197Z,12.75
2023-05-05T02:42:55.297Z,12.74
2023-05-05T02:43:55.164Z,12.72
2023-05-05T02:44:55.164Z,12.69
2023-05-05T02:45:55.140Z,12.67
2023-05-05T02:46:55.199Z,12.67
2023-05-05T02:47:55.199Z,12.69
2023-05-05T02:48:55.137Z,12.71
2023-05-05T02:49:55.130Z,12.72
2023-05-05T02:50:55.112Z,12.73
2023-05-05T02:51:55.077Z,12.73
2023-05-05T02:52:55.074Z,12.73
2023-05-05T02:53:55.067Z,12.73
2023-05-05T02:54:55.042Z,12.73
2023-05-05T02:55:55.073Z,12.73
2023-05-05T02:56:55.045Z,12.73
2023-05-05T02:57:55.007Z,12.74
2023-05-05T02:58:55.007Z,12.74
2023-05-05T02:59:55.004Z,12.74
2023-05-05T03:00:55.012Z,12.75
2023-05-05T03:01:54.987Z,12.77
2023-05-05T03:02:55.103Z,12.80
2023-05-05T03:03:55.058Z,12.83
2023-05-05T03:04:54.924Z,12.85
2023-05-05T03:05:54.944Z,12.86
2023-05-05T03:06:54.941Z,12.87
2023-05-05T03:07:54.918Z,12.88
2023-05-05T03:08:54.894Z,12.88
2023-05-05T03:09:54.926Z,12.85
2023-05-05T03:10:54.881Z,12.80
2023-05-05T03:11:54.862Z,12.76
2023-05-05T03:12:54.878Z,12.76
2023-05-05T03:13:54.850Z,12.79
2023-05-05T03:14:54.985Z,12.81
2023-05-05T03:15:54.874Z,12.83
2023-05-05T03:16:54.808Z,12.83
2023-05-05T03:17:54.856Z,12.79
2023-05-05T03:18:54.813Z,12.75
2023-05-05T03:19:54.788Z,12.73
2023-05-05T03:20:54.809Z,12.74
2023-05-05T03:21:54.768Z,12.73
2023-05-05T03:22:54.789Z,12.71
2023-05-05T03:23:54.752Z,12.71
2023-05-05T03:24:54.836Z,12.75
2023-05-05T03:25:54.744Z,12.79
2023-05-05T03:26:54.729Z,12.82
2023-05-05T03:27:54.758Z,12.84
2023-05-05T03:28:54.695Z,12.85
2023-05-05T03:29:54.735Z,12.84
2023-05-05T03:30:54.706Z,12.81
2023-05-05T03:31:54.811Z,12.77
2023-05-05T03:32:54.729Z,12.73
2023-05-05T03:33:54.668Z,12.71
2023-05-05T03:34:54.647Z,12.74
2023-05-05T03:35:54.649Z,12.77
2023-05-05T03:36:54.607Z,12.77
2023-05-05T03:37:54.633Z,12.74
2023-05-05T03:38:54.617Z,12.69
2023-05-05T03:39:54.606Z,12.66
2023-05-05T03:40:54.559Z,12.68
2023-05-05T03:41:54.645Z,12.73
2023-05-05T03:42:54.561Z,12.78
2023-05-05T03:43:54.577Z,12.80
2023-05-05T03:44:54.605Z,12.80
2023-05-05T03:45:54.593Z,12.77
2023-05-05T03:46:54.574Z,12.74
2023-05-05T03:47:54.603Z,12.74
2023-05-05T03:48:54.484Z,12.73
2023-05-05T03:49:54.486Z,12.71
2023-05-05T03:50:54.451Z,12.68
2023-05-05T03:51:54.662Z,12.65
2023-05-05T03:52:54.464Z,12.63
2023-05-05T03:53:54.481Z,12.59
2023-05-05T03:54:54.427Z,12.56
2023-05-05T03:55:54.488Z,12.58
2023-05-05T03:56:54.399Z,12.60
2023-05-05T03:57:54.428Z,12.60
2023-05-05T03:58:54.448Z,12.60
2023-05-05T03:59:54.412Z,12.60
2023-05-05T04:00:54.393Z,12.62
2023-05-05T04:01:54.387Z,12.64
2023-05-05T04:02:54.411Z,12.67
2023-05-05T04:03:54.443Z,12.70
2023-05-05T04:04:54.463Z,12.71
2023-05-05T04:05:54.369Z,12.73
2023-05-05T04:06:54.362Z,12.75
2023-05-05T04:07:54.349Z,12.74
2023-05-05T04:08:54.280Z,12.72
2023-05-05T04:09:54.322Z,12.72
2023-05-05T04:10:54.286Z,12.75
2023-05-05T04:11:54.303Z,12.77
2023-05-05T04:12:54.270Z,12.78
2023-05-05T04:13:54.245Z,12.79
2023-05-05T04:14:54.333Z,12.80
2023-05-05T04:15:54.291Z,12.78
2023-05-05T04:16:54.227Z,12.77
2023-05-05T04:17:54.308Z,12.75
2023-05-05T04:18:54.186Z,12.76
2023-05-05T04:19:54.301Z,12.77
2023-05-05T04:20:54.166Z,12.78
2023-05-05T04:21:54.214Z,12.77
2023-05-05T04:22:54.244Z,12.78
2023-05-05T04:23:54.155Z,12.81
2023-05-05T04:24:54.125Z,12.84
2023-05-05T04:25:54.114Z,12.87
2023-05-05T04:26:54.097Z,12.88
2023-05-05T04:27:54.079Z,12.89
2023-05-05T04:28:54.086Z,12.90
2023-05-05T04:29:54.069Z,12.92
2023-05-05T04:30:54.107Z,12.94
2023-05-05T04:31:54.022Z,12.94
2023-05-05T04:32:54.080Z,12.93
2023-05-05T04:33:54.029Z,12.91
2023-05-05T04:34:54.026Z,12.87
2023-05-05T04:35:54.007Z,12.85
2023-05-05T04:36:54.021Z,12.87
2023-05-05T04:37:53.964Z,12.87
2023-05-05T04:38:53.992Z,12.83
2023-05-05T04:39:53.943Z,12.78
2023-05-05T04:40:54.047Z,12.76
2023-05-05T04:41:53.960Z,12.77
2023-05-05T04:42:53.918Z,12.78
2023-05-05T04:43:53.937Z,12.79
2023-05-05T04:44:53.929Z,12.81
2023-05-05T04:45:53.964Z,12.82
2023-05-05T04:46:53.944Z,12.83
2023-05-05T04:47:53.915Z,12.85
2023-05-05T04:48:53.938Z,12.89
2023-05-05T04:49:53.865Z,12.91
2023-05-05T04:50:53.888Z,12.91
2023-05-05T04:51:53.852Z,12.89
2023-05-05T04:52:53.916Z,12.87
2023-05-05T04:53:53.806Z,12.87
2023-05-05T04:54:53.924Z,12.89
2023-05-05T04:55:53.818Z,12.93
2023-05-05T04:56:53.776Z,12.95
2023-05-05T04:57:53.814Z,12.97
2023-05-05T04:58:53.796Z,12.95
2023-05-05T04:59:53.777Z,12.94
2023-05-05T05:00:53.753Z,12.94
2023-05-05T05:01:53.820Z,12.95
2023-05-05T05:02:53.789Z,12.97
2023-05-05T05:03:53.783Z,12.99
2023-05-05T05:04:53.745Z,13.02
2023-05-05T05:05:53.726Z,13.06
2023-05-05T05:06:53.740Z,13.09
2023-05-05T05:07:53.664Z,13.12
2023-05-05T05:08:53.692Z,13.16
2023-05-05T05:09:53.663Z,13.22
2023-05-05T05:10:53.679Z,13.27
2023-05-05T05:11:53.632Z,13.32
2023-05-05T05:12:53.659Z,13.36
2023-05-05T05:13:53.608Z,13.39
2023-05-05T05:14:53.624Z,13.42
2023-05-05T05:15:53.624Z,13.46
2023-05-05T05:16:53.603Z,13.50
2023-05-05T05:17:53.660Z,13.55
2023-05-05T05:18:53.576Z,13.61
2023-05-05T05:19:53.560Z,13.66
2023-05-05T05:20:53.600Z,13.69
2023-05-05T05:21:53.537Z,13.70
2023-05-05T05:22:53.518Z,13.72
2023-05-05T05:23:53.545Z,13.75
2023-05-05T05:24:53.509Z,13.76
2023-05-05T05:25:53.505Z,13.78
2023-05-05T05:26:53.504Z,13.80
2023-05-05T05:28:06.103Z,13.83
2023-05-05T05:28:53.483Z,13.85
2023-05-05T05:29:53.466Z,13.88
2023-05-05T05:30:53.440Z,13.89
2023-05-05T05:31:53.454Z,13.88
2023-05-05T05:32:53.484Z,13.89
2023-05-05T05:33:53.461Z,13.90
2023-05-05T05:34:53.389Z,13.93
2023-05-05T05:35:53.401Z,13.97
2023-05-05T05:36:53.390Z,14.00
2023-05-05T05:37:53.380Z,14.04
2023-05-05T05:38:53.371Z,14.06
2023-05-05T05:39:53.394Z,14.08
2023-05-05T05:40:53.344Z,14.10
2023-05-05T05:41:53.330Z,14.12
2023-05-05T05:42:53.322Z,14.14
2023-05-05T05:43:53.321Z,14.18
2023-05-05T05:44:53.323Z,14.22
2023-05-05T05:45:53.413Z,14.26
2023-05-05T05:46:53.281Z,14.30
2023-05-05T05:47:53.329Z,14.34
2023-05-05T05:48:53.249Z,14.38
2023-05-05T05:49:53.449Z,14.42
2023-05-05T05:50:53.289Z,14.45
2023-05-05T05:51:53.212Z,14.48
2023-05-05T05:52:53.194Z,14.49
2023-05-05T05:53:53.186Z,14.49
2023-05-05T05:54:53.169Z,14.50
2023-05-05T05:55:53.159Z,14.51
2023-05-05T05:56:53.161Z,14.53
2023-05-05T05:57:53.352Z,14.54
2023-05-05T05:58:53.120Z,14.56
2023-05-05T05:59:53.155Z,14.57
2023-05-05T06:00:53.118Z,14.57
2023-05-05T06:01:53.101Z,14.59
2023-05-05T06:02:53.192Z,14.60
2023-05-05T06:03:53.114Z,14.61
2023-05-05T06:04:53.372Z,14.62
2023-05-05T06:05:53.212Z,14.65
2023-05-05T06:06:53.130Z,14.68
2023-05-05T06:07:53.048Z,14.72
2023-05-05T06:08:53.075Z,14.75
2023-05-05T06:09:53.027Z,14.77
2023-05-05T06:10:53.005Z,14.77
2023-05-05T06:11:52.995Z,14.76
2023-05-05T06:12:53.096Z,14.77
2023-05-05T06:13:52.975Z,14.77
2023-05-05T06:14:52.953Z,14.77
2023-05-05T06:15:52.986Z,14.78
2023-05-05T06:16:52.979Z,14.80
2023-05-05T06:17:52.948Z,14.81
2023-05-05T06:18:52.911Z,14.83
2023-05-05T06:19:54.461Z,14.85
2023-05-05T06:20:52.909Z,14.85
2023-05-05T06:21:52.920Z,14.87
2023-05-05T06:22:52.883Z,14.91
2023-05-05T06:23:52.870Z,14.96
2023-05-05T06:24:52.847Z,14.99
2023-05-05T06:25:52.845Z,15.00
2023-05-05T06:26:52.825Z,15.04
2023-05-05T06:27:52.841Z,15.08
2023-05-05T06:28:52.854Z,15.11
2023-05-05T06:29:52.819Z,15.17
2023-05-05T06:30:52.786Z,15.22
2023-05-05T06:31:52.916Z,15.25
2023-05-05T06:32:52.781Z,15.29
2023-05-05T06:33:52.774Z,15.30
2023-05-05T06:34:52.745Z,15.32
2023-05-05T06:35:52.762Z,15.35
2023-05-05T06:36:52.834Z,15.38
2023-05-05T06:37:52.722Z,15.41
2023-05-05T06:38:52.717Z,15.43
2023-05-05T06:39:52.727Z,15.45
2023-05-05T06:40:52.728Z,15.48
2023-05-05T06:41:52.669Z,15.50
2023-05-05T06:42:52.692Z,15.56
2023-05-05T06:43:52.652Z,15.65
2023-05-05T06:44:52.664Z,15.75
2023-05-05T06:45:52.671Z,15.84
2023-05-05T06:46:52.736Z,15.91
2023-05-05T06:47:52.718Z,15.97
2023-05-05T06:48:52.631Z,16.02
2023-05-05T06:49:52.636Z,16.07
2023-05-05T06:50:52.595Z,16.12
2023-05-05T06:51:52.605Z,16.18
2023-05-05T06:52:52.577Z,16.23
2023-05-05T06:53:52.583Z,16.29
2023-05-05T06:54:52.552Z,16.34
2023-05-05T06:55:52.550Z,16.37
2023-05-05T06:56:52.530Z,16.41
2023-05-05T06:57:52.516Z,16.47
2023-05-05T06:58:52.502Z,16.51
2023-05-05T06:59:52.519Z,16.56
2023-05-05T07:00:52.531Z,16.61
2023-05-05T07:01:52.493Z,16.63
2023-05-05T07:02:52.548Z,16.64
2023-05-05T07:03:52.515Z,16.63
2023-05-05T07:04:52.441Z,16.65
2023-05-05T07:05:52.461Z,16.69
2023-05-05T07:06:52.455Z,16.74
2023-05-05T07:07:52.420Z,16.79
2023-05-05T07:08:52.401Z,16.86
2023-05-05T07:09:52.390Z,16.96
2023-05-05T07:10:52.391Z,17.09
2023-05-05T07:11:52.406Z,17.21
2023-05-05T07:12:52.474Z,17.30
2023-05-05T07:13:52.371Z,17.37
2023-05-05T07:14:52.347Z,17.40
2023-05-05T07:15:52.337Z,17.42
2023-05-05T07:16:52.428Z,17.44
2023-05-05T07:17:52.391Z,17.43
2023-05-05T07:18:52.333Z,17.45
2023-05-05T07:19:52.291Z,17.51
2023-05-05T07:20:52.279Z,17.56
2023-05-05T07:21:52.308Z,17.61
2023-05-05T07:22:52.329Z,17.65
2023-05-05T07:23:52.297Z,17.68
2023-05-05T07:24:52.241Z,17.72
2023-05-05T07:25:52.246Z,17.78
2023-05-05T07:26:52.227Z,17.85
2023-05-05T07:27:52.225Z,17.95
2023-05-05T07:28:52.214Z,18.05
2023-05-05T07:29:52.220Z,18.14
2023-05-05T07:30:52.179Z,18.22
2023-05-05T07:31:52.219Z,18.29
2023-05-05T07:32:52.190Z,18.37
2023-05-05T07:33:52.177Z,18.43
2023-05-05T07:34:52.179Z,18.46
2023-05-05T07:35:52.174Z,18.49
2023-05-05T07:36:52.256Z,18.52
2023-05-05T07:37:52.123Z,18.54
2023-05-05T07:38:52.094Z,18.58
2023-05-05T07:39:52.096Z,18.57
2023-05-05T07:40:52.123Z,18.52
2023-05-05T07:41:52.075Z,18.47
2023-05-05T07:42:52.097Z,18.43
2023-05-05T07:43:52.079Z,18.40
2023-05-05T07:44:52.065Z,18.37
2023-05-05T07:45:52.082Z,18.38
2023-05-05T07:46:52.039Z,18.40
2023-05-05T07:47:52.068Z,18.44
2023-05-05T07:48:52.075Z,18.52
2023-05-05T07:49:52.119Z,18.60
2023-05-05T07:50:52.064Z,18.65
2023-05-05T07:51:52.035Z,18.71
2023-05-05T07:52:59.276Z,18.78
2023-05-05T07:53:51.951Z,18.86
2023-05-05T07:54:51.963Z,18.93
2023-05-05T07:55:51.943Z,19.01
2023-05-05T07:56:51.940Z,19.10
2023-05-05T07:57:51.906Z,19.14
2023-05-05T07:58:51.878Z,19.10
2023-05-05T07:59:52.115Z,19.01
2023-05-05T08:00:51.895Z,18.99
2023-05-05T08:01:53.687Z,19.04
2023-05-05T08:02:51.925Z,19.12
2023-05-05T08:03:51.958Z,19.19
2023-05-05T08:04:51.855Z,19.26
2023-05-05T08:05:51.924Z,19.34
2023-05-05T08:06:51.825Z,19.44
2023-05-05T08:07:51.840Z,19.51
2023-05-05T08:08:51.785Z,19.47
2023-05-05T08:09:51.783Z,19.35
2023-05-05T08:10:51.770Z,19.31
2023-05-05T08:11:51.809Z,19.38
2023-05-05T08:12:51.777Z,19.54
2023-05-05T08:13:51.831Z,19.68
2023-05-05T08:14:51.721Z,19.83
2023-05-05T08:15:51.774Z,20.00
2023-05-05T08:16:51.726Z,20.13
2023-05-05T08:17:51.831Z,20.19
2023-05-05T08:18:51.734Z,20.12
2023-05-05T08:19:51.675Z,20.00
2023-05-05T08:20:51.801Z,19.96
2023-05-05T08:21:51.726Z,19.96
2023-05-05T08:22:51.640Z,20.00
2023-05-05T08:23:51.638Z,20.11
2023-05-05T08:24:51.669Z,20.22
2023-05-05T08:25:51.663Z,20.32
2023-05-05T08:26:51.603Z,20.37
2023-05-05T08:27:51.597Z,20.36
2023-05-05T08:28:51.581Z,20.28
2023-05-05T08:29:51.590Z,20.21
2023-05-05T08:30:51.554Z,20.19
2023-05-05T08:31:51.872Z,20.24
2023-05-05T08:32:51.619Z,20.22
2023-05-05T08:33:51.538Z,20.22
2023-05-05T08:34:51.519Z,20.31
2023-05-05T08:35:51.626Z,20.35
2023-05-05T08:36:51.529Z,20.36
2023-05-05T08:37:51.519Z,20.39
2023-05-05T08:38:51.471Z,20.41
2023-05-05T08:39:51.482Z,20.40
2023-05-05T08:40:51.497Z,20.44
2023-05-05T08:41:51.483Z,20.55
2023-05-05T08:42:51.506Z,20.66
2023-05-05T08:43:51.422Z,20.74
2023-05-05T08:44:51.460Z,20.79
2023-05-05T08:45:51.427Z,20.78
2023-05-05T08:46:51.539Z,20.74
2023-05-05T08:47:51.394Z,20.71
2023-05-05T08:48:51.366Z,20.62
2023-05-05T08:49:51.408Z,20.60
2023-05-05T08:50:51.433Z,20.63
2023-05-05T08:51:51.354Z,20.68
2023-05-05T08:52:51.464Z,20.77
2023-05-05T08:53:51.365Z,20.80
2023-05-05T08:54:51.384Z,20.78
2023-05-05T08:55:51.305Z,20.82
2023-05-05T08:56:51.428Z,20.87
2023-05-05T08:57:51.394Z,20.96
2023-05-05T08:58:51.287Z,21.06
2023-05-05T08:59:51.347Z,21.04
2023-05-05T09:00:51.334Z,20.89
2023-05-05T09:01:51.283Z,20.79
2023-05-05T09:02:51.328Z,20.82
2023-05-05T09:03:52.557Z,20.91
2023-05-05T09:04:51.394Z,21.00
2023-05-05T09:05:51.250Z,21.03
2023-05-05T09:06:51.258Z,21.00
2023-05-05T09:07:51.222Z,21.00
2023-05-05T09:08:51.184Z,21.07
2023-05-05T09:09:51.155Z,21.11
2023-05-05T09:10:51.137Z,21.12
2023-05-05T09:11:51.138Z,21.22
2023-05-05T09:12:51.579Z,21.32
2023-05-05T09:13:51.192Z,21.42
2023-05-05T09:14:51.096Z,21.56
2023-05-05T09:15:51.125Z,21.67
2023-05-05T09:16:51.129Z,21.73
2023-05-05T09:17:51.184Z,21.75
2023-05-05T09:18:51.104Z,21.77
2023-05-05T09:19:51.062Z,21.73
2023-05-05T09:20:51.057Z,21.61
2023-05-05T09:21:51.042Z,21.40
2023-05-05T09:22:51.071Z,21.18
2023-05-05T09:23:51.032Z,21.01
2023-05-05T09:24:51.044Z,20.88
2023-05-05T09:25:51.027Z,20.90
2023-05-05T09:26:50.974Z,21.02
2023-05-05T09:27:51.011Z,21.06
2023-05-05T09:28:50.975Z,21.17
2023-05-05T09:29:50.960Z,21.37
2023-05-05T09:30:50.959Z,21.50
2023-05-05T09:31:50.996Z,21.60
2023-05-05T09:32:51.006Z,21.76
2023-05-05T09:33:50.915Z,21.90
2023-05-05T09:34:50.915Z,21.98
2023-05-05T09:35:50.897Z,22.01
2023-05-05T09:36:50.908Z,21.87
2023-05-05T09:37:50.870Z,21.75
2023-05-05T09:38:50.882Z,21.83
2023-05-05T09:39:50.847Z,21.98
2023-05-05T09:40:50.876Z,22.11
2023-05-05T09:41:50.859Z,22.21
2023-05-05T09:42:50.827Z,22.30
2023-05-05T09:43:50.824Z,22.36
2023-05-05T09:44:50.895Z,22.48
2023-05-05T09:45:50.815Z,22.30
2023-05-05T09:46:51.164Z,21.90
2023-05-05T09:47:51.970Z,21.79
2023-05-05T09:48:50.886Z,21.97
2023-05-05T09:49:50.741Z,22.14
2023-05-05T09:50:50.780Z,22.27
2023-05-05T09:51:50.722Z,22.31
2023-05-05T09:52:50.721Z,22.28
2023-05-05T09:53:50.729Z,22.25
2023-05-05T09:54:50.704Z,22.31
2023-05-05T09:55:50.723Z,22.43
2023-05-05T09:56:50.747Z,22.51
2023-05-05T09:57:50.698Z,22.48
2023-05-05T09:58:50.714Z,22.52
2023-05-05T09:59:50.667Z,22.56
2023-05-05T10:00:50.673Z,22.41
2023-05-05T10:01:50.720Z,22.25
2023-05-05T10:02:50.694Z,22.33
2023-05-05T10:03:50.657Z,22.55
2023-05-05T10:04:50.653Z,22.54
2023-05-05T10:05:50.711Z,22.49
2023-05-05T10:06:50.587Z,22.61
2023-05-05T10:07:50.563Z,22.81
2023-05-05T10:08:50.549Z,23.01
2023-05-05T10:09:50.563Z,23.07
2023-05-05T10:10:50.549Z,23.00
2023-05-05T10:11:50.557Z,22.96
2023-05-05T10:12:50.603Z,22.99
2023-05-05T10:13:50.537Z,23.00
2023-05-05T10:14:50.486Z,22.95
2023-05-05T10:15:50.585Z,22.94
2023-05-05T10:16:50.530Z,23.01
2023-05-05T10:18:05.953Z,23.14
2023-05-05T10:18:50.533Z,23.22
2023-05-05T10:19:50.443Z,23.15
2023-05-05T10:20:50.424Z,23.10
2023-05-05T10:21:50.510Z,23.18
2023-05-05T10:22:50.503Z,23.26
2023-05-05T10:23:50.447Z,23.32
2023-05-05T10:24:50.423Z,23.39
2023-05-05T10:25:50.370Z,23.43
2023-05-05T10:26:50.396Z,23.39
2023-05-05T10:27:50.379Z,23.31
2023-05-05T10:28:50.388Z,23.29
2023-05-05T10:29:50.359Z,23.28
2023-05-05T10:30:50.340Z,23.23
2023-05-05T10:31:50.362Z,23.27
2023-05-05T10:33:03.587Z,23.45
2023-05-05T10:33:50.370Z,23.64
2023-05-05T10:34:50.291Z,23.75
2023-05-05T10:35:50.388Z,23.86
2023-05-05T10:36:50.296Z,24.01
2023-05-05T10:37:50.290Z,24.08
2023-05-05T10:38:50.238Z,24.12
2023-05-05T10:39:50.244Z,24.19
2023-05-05T10:40:50.250Z,24.21
2023-05-05T10:41:50.252Z,24.16
2023-05-05T10:42:50.232Z,24.03
2023-05-05T10:43:50.194Z,23.87
2023-05-05T10:44:50.214Z,23.74
2023-05-05T10:45:50.313Z,23.61
2023-05-05T10:46:50.177Z,23.49
2023-05-05T10:47:50.172Z,23.34
2023-05-05T10:48:50.207Z,23.19
2023-05-05T10:49:50.129Z,23.17
2023-05-05T10:50:50.126Z,23.07
2023-05-05T10:51:50.167Z,22.81
2023-05-05T10:52:50.129Z,22.59
2023-05-05T10:53:50.144Z,22.54
2023-05-05T10:54:50.087Z,22.59
2023-05-05T10:55:50.085Z,22.61
2023-05-05T10:56:50.073Z,22.48
2023-05-05T10:57:50.079Z,22.35
2023-05-05T10:58:59.851Z,22.35
2023-05-05T10:59:50.066Z,22.38
2023-05-05T11:00:50.042Z,22.38
2023-05-05T11:01:50.038Z,22.29
2023-05-05T11:02:50.062Z,22.22
2023-05-05T11:03:50.075Z,22.15
2023-05-05T11:04:49.986Z,21.89
2023-05-05T11:05:50.059Z,21.62
2023-05-05T11:06:49.983Z,21.60
2023-05-05T11:07:49.976Z,21.77
2023-05-05T11:08:49.937Z,22.01
2023-05-05T11:09:49.920Z,22.23
2023-05-05T11:10:49.939Z,22.37
2023-05-05T11:11:50.075Z,22.54
2023-05-05T11:12:50.288Z,22.70
2023-05-05T11:13:49.901Z,22.79
2023-05-05T11:14:50.239Z,22.70
2023-05-05T11:15:49.918Z,22.54
2023-05-05T11:16:50.080Z,22.50
2023-05-05T11:17:49.861Z,22.56
2023-05-05T11:18:49.883Z,22.66
2023-05-05T11:19:49.837Z,22.72
2023-05-05T11:20:49.849Z,22.68
2023-05-05T11:21:49.824Z,22.55
2023-05-05T11:22:49.793Z,22.43
2023-05-05T11:23:49.816Z,22.33
2023-05-05T11:24:49.813Z,22.12
2023-05-05T11:25:50.017Z,21.86
2023-05-05T11:26:49.865Z,21.74
2023-05-05T11:27:49.814Z,21.73
2023-05-05T11:28:49.735Z,21.76
2023-05-05T11:29:52.007Z,21.76
2023-05-05T11:30:49.787Z,21.71
2023-05-05T11:31:49.742Z,21.70
2023-05-05T11:32:49.734Z,21.69
2023-05-05T11:33:49.756Z,21.69
2023-05-05T11:34:49.714Z,21.64
2023-05-05T11:35:49.678Z,21.52
2023-05-05T11:36:49.657Z,21.44
2023-05-05T11:37:49.649Z,21.44
2023-05-05T11:38:49.644Z,21.44
2023-05-05T11:39:49.628Z,21.42
2023-05-05T11:40:49.618Z,21.41
2023-05-05T11:41:49.600Z,21.45
2023-05-05T11:42:49.622Z,21.51
2023-05-05T11:43:49.693Z,21.56
2023-05-05T11:44:49.577Z,21.66
2023-05-05T11:45:49.608Z,21.76
2023-05-05T11:46:49.542Z,21.83
2023-05-05T11:47:49.566Z,21.88
2023-05-05T11:48:49.554Z,21.89
2023-05-05T11:49:49.857Z,21.87
2023-05-05T11:50:49.622Z,21.89
2023-05-05T11:51:49.611Z,21.98
2023-05-05T11:52:49.596Z,22.07
2023-05-05T11:53:49.622Z,22.16
2023-05-05T11:54:49.484Z,22.25
2023-05-05T11:55:49.466Z,22.29
2023-05-05T11:56:49.486Z,22.27
2023-05-05T11:57:49.491Z,22.22
2023-05-05T11:58:49.471Z,22.18
2023-05-05T11:59:49.772Z,22.17
2023-05-05T12:00:49.458Z,22.15
2023-05-05T12:01:49.426Z,22.10
2023-05-05T12:02:49.595Z,22.07
2023-05-05T12:03:49.516Z,22.07
2023-05-05T12:04:49.555Z,22.05
2023-05-05T12:05:49.387Z,22.06
2023-05-05T12:06:49.381Z,22.04
2023-05-05T12:07:49.425Z,21.98
2023-05-05T12:08:49.326Z,21.96
2023-05-05T12:09:49.401Z,21.96
2023-05-05T12:10:49.341Z,21.91
2023-05-05T12:11:49.298Z,21.84
2023-05-05T12:12:49.323Z,21.68
2023-05-05T12:13:49.275Z,21.50
2023-05-05T12:14:49.359Z,21.44
2023-05-05T12:15:49.320Z,21.47
2023-05-05T12:16:49.262Z,21.50
2023-05-05T12:17:49.297Z,21.52
2023-05-05T12:18:49.472Z,21.56
2023-05-05T12:19:49.280Z,21.58
2023-05-05T12:20:49.216Z,21.50
2023-05-05T12:21:49.277Z,21.46
2023-05-05T12:22:49.226Z,21.52
2023-05-05T12:23:49.180Z,21.57
2023-05-05T12:24:49.236Z,21.52
2023-05-05T12:25:49.145Z,21.47
2023-05-05T12:26:49.204Z,21.43
2023-05-05T12:27:49.218Z,21.42
2023-05-05T12:28:49.182Z,21.48
2023-05-05T12:29:49.221Z,21.52
2023-05-05T12:30:49.111Z,21.55
2023-05-05T12:31:49.255Z,21.59
2023-05-05T12:32:49.165Z,21.63
2023-05-05T12:33:49.077Z,21.68
2023-05-05T12:34:49.063Z,21.68
2023-05-05T12:35:49.052Z,21.64
2023-05-05T12:36:49.040Z,21.60
2023-05-05T12:37:49.073Z,21.59
2023-05-05T12:38:49.087Z,21.60
2023-05-05T12:39:49.017Z,21.60
2023-05-05T12:40:49.039Z,21.58
2023-05-05T12:41:48.995Z,21.57
2023-05-05T12:42:48.998Z,21.56
2023-05-05T12:43:49.165Z,21.57
2023-05-05T12:44:49.067Z,21.58
2023-05-05T12:45:49.014Z,21.59
2023-05-05T12:46:48.990Z,21.59
2023-05-05T12:47:49.046Z,21.54
2023-05-05T12:48:48.909Z,21.47
2023-05-05T12:49:48.910Z,21.40
2023-05-05T12:50:48.928Z,21.37
2023-05-05T12:51:48.949Z,21.34
2023-05-05T12:52:48.960Z,21.30